createdAt,value
2022-12-29T15:53:00.214Z,10.20
2022-12-29T15:55:33.677Z,10.40
2022-12-29T15:58:04.683Z,10.20
2022-12-29T16:00:34.894Z,10.50
2022-12-29T16:03:05.084Z,10.40
2022-12-29T16:05:36.430Z,10.50
2022-12-29T16:08:22.503Z,10.40
2022-12-29T16:10:51.261Z,10.40
2022-12-29T16:13:25.540Z,9.90
2022-12-29T16:15:58.456Z,10.70
2022-12-29T16:18:29.726Z,10.40
2022-12-29T16:20:58.479Z,10.50
2022-12-29T16:23:30.504Z,10.40
2022-12-29T16:25:59.409Z,10.60
2022-12-29T16:28:36.967Z,10.30
2022-12-29T16:31:07.295Z,10.50
2022-12-29T16:33:40.953Z,10.60
2022-12-29T16:36:29.711Z,10.60
2022-12-29T16:39:36.972Z,10.80
2022-12-29T16:42:37.195Z,10.20
2022-12-29T16:45:47.495Z,10.50
2022-12-29T16:48:21.199Z,10.70
2022-12-29T16:50:50.622Z,10.70
2022-12-29T16:53:22.802Z,10.60
2022-12-29T16:55:52.504Z,10.70
2022-12-29T16:58:24.429Z,10.80
2022-12-29T17:00:55.256Z,10.70
2022-12-29T17:03:23.635Z,10.60
2022-12-29T17:05:57.348Z,10.90
2022-12-29T17:08:25.508Z,10.70
2022-12-29T17:11:13.344Z,10.90
2022-12-29T17:13:42.901Z,11.00
2022-12-29T17:16:12.631Z,10.80
2022-12-29T17:18:40.752Z,10.90
2022-12-29T17:21:08.542Z,11.00
2022-12-29T17:23:36.834Z,10.70
2022-12-29T17:26:04.783Z,10.70
2022-12-29T17:28:33.715Z,10.70
2022-12-29T17:31:07.172Z,10.80
2022-12-29T17:33:38.469Z,10.70
2022-12-29T17:36:06.817Z,10.90
2022-12-29T17:38:37.678Z,10.60
2022-12-29T17:41:05.950Z,10.80
2022-12-29T17:43:37.016Z,10.60
2022-12-29T17:46:08.221Z,10.50
2022-12-29T17:48:36.431Z,10.40
2022-12-29T17:51:04.312Z,10.60
2022-12-29T17:53:32.341Z,10.60
2022-12-29T17:56:00.179Z,10.30
2022-12-29T17:58:31.452Z,10.60
2022-12-29T18:01:00.729Z,10.50
2022-12-29T18:03:32.965Z,10.60
2022-12-29T18:06:01.201Z,10.20
2022-12-29T18:08:29.557Z,9.90
2022-12-29T18:10:57.994Z,10.00
2022-12-29T18:13:35.750Z,10.30
2022-12-29T18:16:11.933Z,10.40
2022-12-29T18:18:41.067Z,10.50
2022-12-29T18:21:16.521Z,10.30
2022-12-29T18:23:44.528Z,10.20
2022-12-29T18:26:23.702Z,10.30
2022-12-29T18:28:55.374Z,10.50
2022-12-29T18:31:25.631Z,10.30
2022-12-29T18:33:56.163Z,10.30
2022-12-29T18:36:24.190Z,10.30
2022-12-29T18:38:54.018Z,10.20
2022-12-29T18:41:23.822Z,10.10
2022-12-29T18:43:52.065Z,10.20
2022-12-29T18:46:23.268Z,10.10
2022-12-29T18:48:51.846Z,10.30
2022-12-29T18:51:23.895Z,10.00
2022-12-29T18:53:53.703Z,10.00
2022-12-29T18:56:22.433Z,10.20
2022-12-29T18:58:50.934Z,10.00
2022-12-29T19:01:21.386Z,9.80
2022-12-29T19:03:49.499Z,10.20
2022-12-29T19:06:17.444Z,10.10
2022-12-29T19:08:46.764Z,10.20
2022-12-29T19:11:14.557Z,9.80
2022-12-29T19:13:42.312Z,10.10
2022-12-29T19:16:18.113Z,9.50
2022-12-29T19:18:53.261Z,10.00
2022-12-29T19:21:31.791Z,10.10
2022-12-29T19:24:00.874Z,10.20
2022-12-29T19:26:31.334Z,10.00
2022-12-29T19:29:00.671Z,10.30
2022-12-29T19:31:28.835Z,10.10
2022-12-29T19:33:56.715Z,10.20
2022-12-29T19:36:24.647Z,10.30
2022-12-29T19:38:52.416Z,10.00
2022-12-29T19:41:21.610Z,10.00
2022-12-29T19:43:50.189Z,9.70
2022-12-29T19:46:19.621Z,10.30
2022-12-29T19:48:47.645Z,10.20
2022-12-29T19:51:17.082Z,10.20
2022-12-29T19:53:45.752Z,10.20
2022-12-29T19:56:14.686Z,10.00
2022-12-29T19:58:47.264Z,9.90
2022-12-29T20:01:17.761Z,10.10
2022-12-29T20:03:45.842Z,10.10
2022-12-29T20:06:13.885Z,9.80
2022-12-29T20:08:41.688Z,10.10
2022-12-29T20:11:12.124Z,9.90
2022-12-29T20:13:40.655Z,9.80
2022-12-29T20:16:13.100Z,10.10
2022-12-29T20:18:41.024Z,9.80
2022-12-29T20:21:10.445Z,10.00
2022-12-29T20:23:40.483Z,9.70
2022-12-29T20:26:09.079Z,9.80
2022-12-29T20:28:37.091Z,9.70
2022-12-29T20:31:07.701Z,9.60
2022-12-29T20:33:37.252Z,9.70
2022-12-29T20:36:08.049Z,9.50
2022-12-29T20:38:36.359Z,9.90
2022-12-29T20:41:04.683Z,9.90
2022-12-29T20:43:32.602Z,10.10
2022-12-29T20:46:00.783Z,9.90
2022-12-29T20:48:28.779Z,9.80
2022-12-29T20:51:00.287Z,9.90
2022-12-29T20:53:28.533Z,9.50
2022-12-29T20:56:00.539Z,9.50
2022-12-29T20:58:28.848Z,9.70
2022-12-29T21:00:57.413Z,9.70
2022-12-29T21:03:25.843Z,9.80
